sensor_id;sensor_type;location;lat;lon;timestamp;temperature;humidity
3648;DHT22;1840;48.892;15.312;2023-04-01T00:01:14;5.70;99.00
3648;DHT22;1840;48.892;15.312;2023-04-01T00:03:43;5.60;99.30
3648;DHT22;1840;48.892;15.312;2023-04-01T00:06:13;5.70;98.80
3648;DHT22;1840;48.892;15.312;2023-04-01T00:08:41;5.60;99.20
3648;DHT22;1840;48.892;15.312;2023-04-01T00:11:11;5.60;99.10
3648;DHT22;1840;48.892;15.312;2023-04-01T00:13:40;5.60;99.00
3648;DHT22;1840;48.892;15.312;2023-04-01T00:16:09;5.50;98.80
3648;DHT22;1840;48.892;15.312;2023-04-01T00:18:49;5.50;98.90
3648;DHT22;1840;48.892;15.312;2023-04-01T00:21:17;5.50;99.10
3648;DHT22;1840;48.892;15.312;2023-04-01T00:23:46;5.60;98.90
3648;DHT22;1840;48.892;15.312;2023-04-01T00:26:14;5.70;98.70
3648;DHT22;1840;48.892;15.312;2023-04-01T00:28:47;5.80;98.70
3648;DHT22;1840;48.892;15.312;2023-04-01T00:31:15;5.80;98.90
3648;DHT22;1840;48.892;15.312;2023-04-01T00:33:43;5.80;99.00
3648;DHT22;1840;48.892;15.312;2023-04-01T00:36:13;5.70;98.90
3648;DHT22;1840;48.892;15.312;2023-04-01T00:38:41;5.70;98.70
3648;DHT22;1840;48.892;15.312;2023-04-01T00:41:10;5.70;98.80
3648;DHT22;1840;48.892;15.312;2023-04-01T00:43:41;5.60;99.30
3648;DHT22;1840;48.892;15.312;2023-04-01T00:46:11;5.80;98.90
3648;DHT22;1840;48.892;15.312;2023-04-01T00:48:41;5.90;98.50
3648;DHT22;1840;48.892;15.312;2023-04-01T00:51:13;5.80;98.90
3648;DHT22;1840;48.892;15.312;2023-04-01T00:53:44;5.80;98.80
3648;DHT22;1840;48.892;15.312;2023-04-01T00:56:15;5.70;99.00
3648;DHT22;1840;48.892;15.312;2023-04-01T00:58:48;5.40;99.20
3648;DHT22;1840;48.892;15.312;2023-04-01T01:01:19;5.50;99.10
3648;DHT22;1840;48.892;15.312;2023-04-01T01:03:48;5.40;99.40
3648;DHT22;1840;48.892;15.312;2023-04-01T01:06:30;5.30;99.50
3648;DHT22;1840;48.892;15.312;2023-04-01T01:09:16;5.00;99.90
3648;DHT22;1840;48.892;15.312;2023-04-01T01:11:51;5.00;99.90
3648;DHT22;1840;48.892;15.312;2023-04-01T01:14:29;4.90;99.90
3648;DHT22;1840;48.892;15.312;2023-04-01T01:17:09;5.10;99.90
3648;DHT22;1840;48.892;15.312;2023-04-01T01:20:01;5.00;99.90
3648;DHT22;1840;48.892;15.312;2023-04-01T01:26:11;5.10;99.90
3648;DHT22;1840;48.892;15.312;2023-04-01T01:28:51;5.10;99.90
3648;DHT22;1840;48.892;15.312;2023-04-01T01:31:30;5.10;99.90
3648;DHT22;1840;48.892;15.312;2023-04-01T01:34:10;5.00;99.90
3648;DHT22;1840;48.892;15.312;2023-04-01T01:36:45;5.00;99.90
3648;DHT22;1840;48.892;15.312;2023-04-01T01:39:16;5.00;99.90
3648;DHT22;1840;48.892;15.312;2023-04-01T01:41:47;5.10;99.90
3648;DHT22;1840;48.892;15.312;2023-04-01T01:44:16;5.00;99.90
3648;DHT22;1840;48.892;15.312;2023-04-01T01:46:45;5.10;99.90
3648;DHT22;1840;48.892;15.312;2023-04-01T01:49:17;5.20;99.90
3648;DHT22;1840;48.892;15.312;2023-04-01T01:51:48;5.30;99.90
3648;DHT22;1840;48.892;15.312;2023-04-01T01:54:17;5.40;99.90
3648;DHT22;1840;48.892;15.312;2023-04-01T01:56:49;5.40;99.70
3648;DHT22;1840;48.892;15.312;2023-04-01T01:59:20;5.30;99.90
3648;DHT22;1840;48.892;15.312;2023-04-01T02:01:52;5.40;99.80
3648;DHT22;1840;48.892;15.312;2023-04-01T02:04:22;5.40;99.60
3648;DHT22;1840;48.892;15.312;2023-04-01T02:06:55;5.10;99.90
3648;DHT22;1840;48.892;15.312;2023-04-01T02:09:25;5.30;99.90
3648;DHT22;1840;48.892;15.312;2023-04-01T02:11:57;5.40;99.60
3648;DHT22;1840;48.892;15.312;2023-04-01T02:14:28;5.50;99.60
3648;DHT22;1840;48.892;15.312;2023-04-01T02:16:59;5.60;99.50
3648;DHT22;1840;48.892;15.312;2023-04-01T02:19:33;5.50;99.70
3648;DHT22;1840;48.892;15.312;2023-04-01T02:22:08;5.60;99.50
3648;DHT22;1840;48.892;15.312;2023-04-01T02:24:39;5.60;99.20
3648;DHT22;1840;48.892;15.312;2023-04-01T02:27:09;5.50;99.60
3648;DHT22;1840;48.892;15.312;2023-04-01T02:29:38;5.50;99.40
3648;DHT22;1840;48.892;15.312;2023-04-01T02:32:07;5.40;99.50
3648;DHT22;1840;48.892;15.312;2023-04-01T02:34:37;5.40;99.50
3648;DHT22;1840;48.892;15.312;2023-04-01T02:37:06;5.50;99.40
3648;DHT22;1840;48.892;15.312;2023-04-01T02:39:34;5.50;99.40
3648;DHT22;1840;48.892;15.312;2023-04-01T02:42:03;5.80;99.10
3648;DHT22;1840;48.892;15.312;2023-04-01T02:44:31;5.70;99.30
3648;DHT22;1840;48.892;15.312;2023-04-01T02:47:00;5.50;99.20
3648;DHT22;1840;48.892;15.312;2023-04-01T02:49:28;5.50;99.40
3648;DHT22;1840;48.892;15.312;2023-04-01T02:51:56;5.70;99.10
3648;DHT22;1840;48.892;15.312;2023-04-01T02:54:25;5.80;99.00
3648;DHT22;1840;48.892;15.312;2023-04-01T02:56:53;5.80;98.80
3648;DHT22;1840;48.892;15.312;2023-04-01T02:59:22;5.70;98.90
3648;DHT22;1840;48.892;15.312;2023-04-01T03:01:50;5.60;99.00
3648;DHT22;1840;48.892;15.312;2023-04-01T03:04:18;5.50;99.20
3648;DHT22;1840;48.892;15.312;2023-04-01T03:06:46;5.70;99.10
3648;DHT22;1840;48.892;15.312;2023-04-01T03:09:14;5.50;99.20
3648;DHT22;1840;48.892;15.312;2023-04-01T03:11:44;5.60;99.10
3648;DHT22;1840;48.892;15.312;2023-04-01T03:14:12;6.00;98.80
3648;DHT22;1840;48.892;15.312;2023-04-01T03:16:40;5.90;98.80
3648;DHT22;1840;48.892;15.312;2023-04-01T03:19:08;5.70;99.00
3648;DHT22;1840;48.892;15.312;2023-04-01T03:21:36;5.70;98.90
3648;DHT22;1840;48.892;15.312;2023-04-01T03:24:04;5.80;98.80
3648;DHT22;1840;48.892;15.312;2023-04-01T03:26:32;5.80;99.00
3648;DHT22;1840;48.892;15.312;2023-04-01T03:29:02;5.70;98.90
3648;DHT22;1840;48.892;15.312;2023-04-01T03:31:30;5.70;98.80
3648;DHT22;1840;48.892;15.312;2023-04-01T03:33:58;5.90;98.60
3648;DHT22;1840;48.892;15.312;2023-04-01T03:36:26;6.10;98.40
3648;DHT22;1840;48.892;15.312;2023-04-01T03:38:54;6.10;98.10
3648;DHT22;1840;48.892;15.312;2023-04-01T03:41:22;5.90;98.60
3648;DHT22;1840;48.892;15.312;2023-04-01T03:43:53;5.90;98.50
3648;DHT22;1840;48.892;15.312;2023-04-01T03:46:22;6.00;98.20
3648;DHT22;1840;48.892;15.312;2023-04-01T03:48:50;6.00;97.90
3648;DHT22;1840;48.892;15.312;2023-04-01T03:51:18;6.00;98.10
3648;DHT22;1840;48.892;15.312;2023-04-01T03:53:46;5.90;98.20
3648;DHT22;1840;48.892;15.312;2023-04-01T03:56:14;6.00;98.20
3648;DHT22;1840;48.892;15.312;2023-04-01T03:58:42;5.80;98.30
3648;DHT22;1840;48.892;15.312;2023-04-01T04:01:17;5.80;98.30
3648;DHT22;1840;48.892;15.312;2023-04-01T04:03:49;5.70;98.60
3648;DHT22;1840;48.892;15.312;2023-04-01T04:06:18;6.00;98.20
3648;DHT22;1840;48.892;15.312;2023-04-01T04:08:46;6.00;98.30
3648;DHT22;1840;48.892;15.312;2023-04-01T04:11:14;5.80;98.30
3648;DHT22;1840;48.892;15.312;2023-04-01T04:13:43;5.70;98.40
3648;DHT22;1840;48.892;15.312;2023-04-01T04:16:11;5.60;98.60
3648;DHT22;1840;48.892;15.312;2023-04-01T04:18:40;5.40;98.80
3648;DHT22;1840;48.892;15.312;2023-04-01T04:21:12;5.40;98.80
3648;DHT22;1840;48.892;15.312;2023-04-01T04:23:41;5.30;99.00
3648;DHT22;1840;48.892;15.312;2023-04-01T04:26:12;5.40;98.80
3648;DHT22;1840;48.892;15.312;2023-04-01T04:28:40;5.20;99.20
3648;DHT22;1840;48.892;15.312;2023-04-01T04:31:08;5.10;99.10
3648;DHT22;1840;48.892;15.312;2023-04-01T04:33:37;5.10;99.50
3648;DHT22;1840;48.892;15.312;2023-04-01T04:36:07;5.20;99.20
3648;DHT22;1840;48.892;15.312;2023-04-01T04:38:37;5.10;99.10
3648;DHT22;1840;48.892;15.312;2023-04-01T04:41:09;5.20;99.30
3648;DHT22;1840;48.892;15.312;2023-04-01T04:43:39;5.20;99.00
3648;DHT22;1840;48.892;15.312;2023-04-01T04:46:08;5.20;98.90
3648;DHT22;1840;48.892;15.312;2023-04-01T04:48:37;5.30;99.00
3648;DHT22;1840;48.892;15.312;2023-04-01T04:51:07;5.20;98.90
3648;DHT22;1840;48.892;15.312;2023-04-01T04:53:37;5.20;98.90
3648;DHT22;1840;48.892;15.312;2023-04-01T04:56:06;5.30;98.80
3648;DHT22;1840;48.892;15.312;2023-04-01T04:58:36;5.00;99.00
3648;DHT22;1840;48.892;15.312;2023-04-01T05:01:07;5.20;99.00
3648;DHT22;1840;48.892;15.312;2023-04-01T05:03:37;5.20;98.90
3648;DHT22;1840;48.892;15.312;2023-04-01T05:06:06;5.20;99.00
3648;DHT22;1840;48.892;15.312;2023-04-01T05:08:35;5.20;98.90
3648;DHT22;1840;48.892;15.312;2023-04-01T05:11:07;5.10;99.00
3648;DHT22;1840;48.892;15.312;2023-04-01T05:13:41;5.10;99.10
3648;DHT22;1840;48.892;15.312;2023-04-01T05:16:11;5.20;98.80
3648;DHT22;1840;48.892;15.312;2023-04-01T05:18:40;5.20;99.00
3648;DHT22;1840;48.892;15.312;2023-04-01T05:21:09;5.30;99.00
3648;DHT22;1840;48.892;15.312;2023-04-01T05:23:39;5.20;98.90
3648;DHT22;1840;48.892;15.312;2023-04-01T05:26:12;5.30;98.80
3648;DHT22;1840;48.892;15.312;2023-04-01T05:28:42;5.20;99.10
3648;DHT22;1840;48.892;15.312;2023-04-01T05:31:12;5.30;99.10
3648;DHT22;1840;48.892;15.312;2023-04-01T05:33:40;5.30;98.90
3648;DHT22;1840;48.892;15.312;2023-04-01T05:36:09;5.40;99.00
3648;DHT22;1840;48.892;15.312;2023-04-01T05:38:39;5.60;98.60
3648;DHT22;1840;48.892;15.312;2023-04-01T05:41:08;5.60;98.50
3648;DHT22;1840;48.892;15.312;2023-04-01T05:43:37;5.60;98.50
3648;DHT22;1840;48.892;15.312;2023-04-01T05:46:06;5.70;98.40
3648;DHT22;1840;48.892;15.312;2023-04-01T05:48:34;5.70;98.50
3648;DHT22;1840;48.892;15.312;2023-04-01T05:51:03;5.80;98.60
3648;DHT22;1840;48.892;15.312;2023-04-01T05:53:31;5.90;98.00
3648;DHT22;1840;48.892;15.312;2023-04-01T05:56:02;5.90;98.50
3648;DHT22;1840;48.892;15.312;2023-04-01T05:58:32;5.80;98.40
3648;DHT22;1840;48.892;15.312;2023-04-01T06:01:02;6.00;98.30
3648;DHT22;1840;48.892;15.312;2023-04-01T06:03:38;5.90;98.60
3648;DHT22;1840;48.892;15.312;2023-04-01T06:06:13;6.10;98.10
3648;DHT22;1840;48.892;15.312;2023-04-01T06:08:43;5.80;98.60
3648;DHT22;1840;48.892;15.312;2023-04-01T06:11:19;5.90;98.60
3648;DHT22;1840;48.892;15.312;2023-04-01T06:14:07;6.20;97.80
3648;DHT22;1840;48.892;15.312;2023-04-01T06:16:49;6.30;97.80
3648;DHT22;1840;48.892;15.312;2023-04-01T06:19:29;6.30;97.80
3648;DHT22;1840;48.892;15.312;2023-04-01T06:22:13;6.40;97.40
3648;DHT22;1840;48.892;15.312;2023-04-01T06:24:57;6.50;97.50
3648;DHT22;1840;48.892;15.312;2023-04-01T06:27:42;6.20;97.70
3648;DHT22;1840;48.892;15.312;2023-04-01T06:30:29;6.30;97.50
3648;DHT22;1840;48.892;15.312;2023-04-01T06:33:18;6.10;98.50
3648;DHT22;1840;48.892;15.312;2023-04-01T06:39:12;6.50;97.00
3648;DHT22;1840;48.892;15.312;2023-04-01T06:42:02;6.50;97.30
3648;DHT22;1840;48.892;15.312;2023-04-01T06:44:39;6.40;97.10
3648;DHT22;1840;48.892;15.312;2023-04-01T06:47:31;6.50;97.60
3648;DHT22;1840;48.892;15.312;2023-04-01T06:50:09;6.80;97.10
3648;DHT22;1840;48.892;15.312;2023-04-01T06:52:47;6.80;97.30
3648;DHT22;1840;48.892;15.312;2023-04-01T06:55:26;6.90;96.70
3648;DHT22;1840;48.892;15.312;2023-04-01T06:57:56;6.60;97.50
3648;DHT22;1840;48.892;15.312;2023-04-01T07:00:29;7.10;97.20
3648;DHT22;1840;48.892;15.312;2023-04-01T07:03:06;7.20;96.90
3648;DHT22;1840;48.892;15.312;2023-04-01T07:05:39;7.50;96.90
3648;DHT22;1840;48.892;15.312;2023-04-01T07:08:10;7.80;96.40
3648;DHT22;1840;48.892;15.312;2023-04-01T07:10:44;8.20;96.00
3648;DHT22;1840;48.892;15.312;2023-04-01T07:13:18;8.10;95.90
3648;DHT22;1840;48.892;15.312;2023-04-01T07:15:55;8.10;95.50
3648;DHT22;1840;48.892;15.312;2023-04-01T07:18:32;8.00;95.40
3648;DHT22;1840;48.892;15.312;2023-04-01T07:21:04;7.60;95.80
3648;DHT22;1840;48.892;15.312;2023-04-01T07:23:40;7.90;95.70
3648;DHT22;1840;48.892;15.312;2023-04-01T07:26:16;7.80;95.40
3648;DHT22;1840;48.892;15.312;2023-04-01T07:28:44;8.00;95.60
3648;DHT22;1840;48.892;15.312;2023-04-01T07:31:20;8.00;95.30
3648;DHT22;1840;48.892;15.312;2023-04-01T07:33:57;8.50;95.90
3648;DHT22;1840;48.892;15.312;2023-04-01T07:36:33;8.70;95.40
3648;DHT22;1840;48.892;15.312;2023-04-01T07:39:12;9.20;94.90
3648;DHT22;1840;48.892;15.312;2023-04-01T07:41:51;9.40;94.60
3648;DHT22;1840;48.892;15.312;2023-04-01T07:44:25;9.60;94.50
3648;DHT22;1840;48.892;15.312;2023-04-01T07:47:04;9.10;94.00
3648;DHT22;1840;48.892;15.312;2023-04-01T07:49:43;8.90;93.60
3648;DHT22;1840;48.892;15.312;2023-04-01T07:52:18;8.60;94.30
3648;DHT22;1840;48.892;15.312;2023-04-01T07:54:51;8.70;94.50
3648;DHT22;1840;48.892;15.312;2023-04-01T07:57:24;9.00;94.30
3648;DHT22;1840;48.892;15.312;2023-04-01T07:59:59;9.20;93.90
3648;DHT22;1840;48.892;15.312;2023-04-01T08:02:36;9.30;94.10
3648;DHT22;1840;48.892;15.312;2023-04-01T08:05:17;9.40;93.70
3648;DHT22;1840;48.892;15.312;2023-04-01T08:07:52;9.40;92.90
3648;DHT22;1840;48.892;15.312;2023-04-01T08:10:26;9.40;94.20
3648;DHT22;1840;48.892;15.312;2023-04-01T08:13:05;8.90;93.20
3648;DHT22;1840;48.892;15.312;2023-04-01T08:15:41;8.70;93.80
3648;DHT22;1840;48.892;15.312;2023-04-01T08:18:19;8.90;93.50
3648;DHT22;1840;48.892;15.312;2023-04-01T08:20:55;9.20;94.00
3648;DHT22;1840;48.892;15.312;2023-04-01T08:23:27;9.40;93.60
3648;DHT22;1840;48.892;15.312;2023-04-01T08:26:02;9.20;93.10
3648;DHT22;1840;48.892;15.312;2023-04-01T08:28:34;9.40;93.40
3648;DHT22;1840;48.892;15.312;2023-04-01T08:31:06;9.80;93.60
3648;DHT22;1840;48.892;15.312;2023-04-01T08:33:39;10.40;92.50
3648;DHT22;1840;48.892;15.312;2023-04-01T08:36:12;10.30;92.10
3648;DHT22;1840;48.892;15.312;2023-04-01T08:38:46;9.50;91.90
3648;DHT22;1840;48.892;15.312;2023-04-01T08:41:36;9.40;92.80
3648;DHT22;1840;48.892;15.312;2023-04-01T08:44:29;9.60;92.80
3648;DHT22;1840;48.892;15.312;2023-04-01T08:50:29;9.20;92.30
3648;DHT22;1840;48.892;15.312;2023-04-01T08:53:09;8.90;92.80
3648;DHT22;1840;48.892;15.312;2023-04-01T08:55:54;8.70;93.40
3648;DHT22;1840;48.892;15.312;2023-04-01T09:01:56;8.50;93.30
3648;DHT22;1840;48.892;15.312;2023-04-01T09:04:39;8.10;93.60
3648;DHT22;1840;48.892;15.312;2023-04-01T09:07:21;8.20;94.00
3648;DHT22;1840;48.892;15.312;2023-04-01T09:13:14;8.60;93.80
3648;DHT22;1840;48.892;15.312;2023-04-01T09:16:19;8.90;93.40
3648;DHT22;1840;48.892;15.312;2023-04-01T09:19:04;8.80;93.50
3648;DHT22;1840;48.892;15.312;2023-04-01T09:21:55;9.00;93.50
3648;DHT22;1840;48.892;15.312;2023-04-01T09:27:26;9.20;93.40
3648;DHT22;1840;48.892;15.312;2023-04-01T09:30:27;9.40;93.50
3648;DHT22;1840;48.892;15.312;2023-04-01T09:33:24;9.20;92.90
3648;DHT22;1840;48.892;15.312;2023-04-01T09:36:04;9.00;93.00
3648;DHT22;1840;48.892;15.312;2023-04-01T09:38:44;9.00;93.60
3648;DHT22;1840;48.892;15.312;2023-04-01T09:41:27;9.10;93.70
3648;DHT22;1840;48.892;15.312;2023-04-01T09:44:01;9.30;93.70
3648;DHT22;1840;48.892;15.312;2023-04-01T09:46:49;9.30;93.60
3648;DHT22;1840;48.892;15.312;2023-04-01T09:52:20;10.10;93.80
3648;DHT22;1840;48.892;15.312;2023-04-01T09:55:05;10.60;92.60
3648;DHT22;1840;48.892;15.312;2023-04-01T10:01:07;10.30;92.00
3648;DHT22;1840;48.892;15.312;2023-04-01T10:07:43;9.80;91.60
3648;DHT22;1840;48.892;15.312;2023-04-01T10:10:39;9.70;92.40
3648;DHT22;1840;48.892;15.312;2023-04-01T10:16:28;10.60;92.90
3648;DHT22;1840;48.892;15.312;2023-04-01T10:22:40;10.90;92.30
3648;DHT22;1840;48.892;15.312;2023-04-01T10:25:41;10.30;91.40
3648;DHT22;1840;48.892;15.312;2023-04-01T10:32:06;9.90;91.80
3648;DHT22;1840;48.892;15.312;2023-04-01T10:38:19;9.40;91.20
3648;DHT22;1840;48.892;15.312;2023-04-01T10:41:25;9.00;91.90
3648;DHT22;1840;48.892;15.312;2023-04-01T10:44:30;9.20;92.00
3648;DHT22;1840;48.892;15.312;2023-04-01T10:47:26;9.80;91.80
3648;DHT22;1840;48.892;15.312;2023-04-01T10:53:31;10.00;91.50
3648;DHT22;1840;48.892;15.312;2023-04-01T10:56:39;9.80;91.10
3648;DHT22;1840;48.892;15.312;2023-04-01T10:59:20;9.90;92.00
3648;DHT22;1840;48.892;15.312;2023-04-01T11:02:28;10.30;92.40
3648;DHT22;1840;48.892;15.312;2023-04-01T11:08:48;9.50;92.40
3648;DHT22;1840;48.892;15.312;2023-04-01T11:15:14;9.30;93.30
3648;DHT22;1840;48.892;15.312;2023-04-01T11:18:18;9.70;92.80
3648;DHT22;1840;48.892;15.312;2023-04-01T11:24:24;10.80;91.80
3648;DHT22;1840;48.892;15.312;2023-04-01T11:27:02;10.50;92.30
3648;DHT22;1840;48.892;15.312;2023-04-01T11:30:02;10.60;92.10
3648;DHT22;1840;48.892;15.312;2023-04-01T11:32:43;10.90;92.80
3648;DHT22;1840;48.892;15.312;2023-04-01T11:38:23;11.80;92.00
3648;DHT22;1840;48.892;15.312;2023-04-01T11:40:59;11.40;90.10
3648;DHT22;1840;48.892;15.312;2023-04-01T11:43:36;10.60;90.80
3648;DHT22;1840;48.892;15.312;2023-04-01T11:46:10;10.10;90.90
3648;DHT22;1840;48.892;15.312;2023-04-01T11:48:56;10.40;91.50
3648;DHT22;1840;48.892;15.312;2023-04-01T11:51:49;10.60;91.50
3648;DHT22;1840;48.892;15.312;2023-04-01T11:54:28;10.20;90.70
3648;DHT22;1840;48.892;15.312;2023-04-01T11:57:16;9.50;90.90
3648;DHT22;1840;48.892;15.312;2023-04-01T12:00:00;9.40;91.70
3648;DHT22;1840;48.892;15.312;2023-04-01T12:02:36;8.90;94.10
3648;DHT22;1840;48.892;15.312;2023-04-01T12:05:25;8.60;94.90
3648;DHT22;1840;48.892;15.312;2023-04-01T12:08:19;8.90;95.30
3648;DHT22;1840;48.892;15.312;2023-04-01T12:10:53;9.40;95.90
3648;DHT22;1840;48.892;15.312;2023-04-01T12:13:32;9.30;95.30
3648;DHT22;1840;48.892;15.312;2023-04-01T12:19:20;9.70;96.00
3648;DHT22;1840;48.892;15.312;2023-04-01T12:22:03;10.30;95.70
3648;DHT22;1840;48.892;15.312;2023-04-01T12:24:44;10.40;94.80
3648;DHT22;1840;48.892;15.312;2023-04-01T12:27:41;10.60;93.70
3648;DHT22;1840;48.892;15.312;2023-04-01T12:36:43;10.20;92.40
3648;DHT22;1840;48.892;15.312;2023-04-01T12:39:29;10.10;93.40
3648;DHT22;1840;48.892;15.312;2023-04-01T12:42:07;10.20;92.80
3648;DHT22;1840;48.892;15.312;2023-04-01T12:44:46;9.80;93.00
3648;DHT22;1840;48.892;15.312;2023-04-01T12:47:49;9.70;93.50
3648;DHT22;1840;48.892;15.312;2023-04-01T12:50:28;9.00;95.00
3648;DHT22;1840;48.892;15.312;2023-04-01T12:53:11;8.40;95.30
3648;DHT22;1840;48.892;15.312;2023-04-01T12:55:45;8.00;96.20
3648;DHT22;1840;48.892;15.312;2023-04-01T12:58:36;7.90;96.80
3648;DHT22;1840;48.892;15.312;2023-04-01T13:01:19;7.90;96.00
3648;DHT22;1840;48.892;15.312;2023-04-01T13:04:25;7.90;96.50
3648;DHT22;1840;48.892;15.312;2023-04-01T13:07:12;7.80;96.40
3648;DHT22;1840;48.892;15.312;2023-04-01T13:09:47;7.70;96.90
3648;DHT22;1840;48.892;15.312;2023-04-01T13:12:41;7.90;97.60
3648;DHT22;1840;48.892;15.312;2023-04-01T13:15:22;8.70;97.30
3648;DHT22;1840;48.892;15.312;2023-04-01T13:17:54;9.50;97.20
3648;DHT22;1840;48.892;15.312;2023-04-01T13:20:39;9.50;95.60
3648;DHT22;1840;48.892;15.312;2023-04-01T13:23:29;9.50;96.30
3648;DHT22;1840;48.892;15.312;2023-04-01T13:26:07;9.50;95.80
3648;DHT22;1840;48.892;15.312;2023-04-01T13:28:43;9.80;95.90
3648;DHT22;1840;48.892;15.312;2023-04-01T13:31:36;10.10;95.50
3648;DHT22;1840;48.892;15.312;2023-04-01T13:34:18;9.80;94.80
3648;DHT22;1840;48.892;15.312;2023-04-01T13:36:59;10.00;94.50
3648;DHT22;1840;48.892;15.312;2023-04-01T13:39:45;10.00;93.90
3648;DHT22;1840;48.892;15.312;2023-04-01T13:42:21;9.90;94.50
3648;DHT22;1840;48.892;15.312;2023-04-01T13:44:54;10.10;94.90
3648;DHT22;1840;48.892;15.312;2023-04-01T13:56:34;10.40;93.90
3648;DHT22;1840;48.892;15.312;2023-04-01T13:59:28;10.20;94.20
3648;DHT22;1840;48.892;15.312;2023-04-01T14:02:20;9.80;94.20
3648;DHT22;1840;48.892;15.312;2023-04-01T14:05:15;9.20;94.00
3648;DHT22;1840;48.892;15.312;2023-04-01T14:08:14;8.20;95.40
3648;DHT22;1840;48.892;15.312;2023-04-01T14:10:49;7.60;96.90
3648;DHT22;1840;48.892;15.312;2023-04-01T14:13:26;7.30;98.10
3648;DHT22;1840;48.892;15.312;2023-04-01T14:16:05;7.80;98.60
3648;DHT22;1840;48.892;15.312;2023-04-01T14:18:49;8.20;98.70
3648;DHT22;1840;48.892;15.312;2023-04-01T14:21:29;8.70;98.40
3648;DHT22;1840;48.892;15.312;2023-04-01T14:24:08;8.70;97.70
3648;DHT22;1840;48.892;15.312;2023-04-01T14:29:46;8.60;97.20
3648;DHT22;1840;48.892;15.312;2023-04-01T14:32:27;8.50;97.40
3648;DHT22;1840;48.892;15.312;2023-04-01T14:35:19;8.50;97.00
3648;DHT22;1840;48.892;15.312;2023-04-01T14:40:56;8.90;96.60
3648;DHT22;1840;48.892;15.312;2023-04-01T14:46:47;9.00;96.70
3648;DHT22;1840;48.892;15.312;2023-04-01T14:49:22;8.90;97.20
3648;DHT22;1840;48.892;15.312;2023-04-01T14:51:52;8.60;97.70
3648;DHT22;1840;48.892;15.312;2023-04-01T14:54:31;8.60;97.60
3648;DHT22;1840;48.892;15.312;2023-04-01T14:57:10;8.60;97.60
3648;DHT22;1840;48.892;15.312;2023-04-01T14:59:41;8.70;97.70
3648;DHT22;1840;48.892;15.312;2023-04-01T15:02:25;8.60;97.10
3648;DHT22;1840;48.892;15.312;2023-04-01T15:05:04;8.30;97.80
3648;DHT22;1840;48.892;15.312;2023-04-01T15:08:00;8.30;97.80
3648;DHT22;1840;48.892;15.312;2023-04-01T15:13:39;8.10;98.80
3648;DHT22;1840;48.892;15.312;2023-04-01T15:16:17;8.40;99.30
3648;DHT22;1840;48.892;15.312;2023-04-01T15:18:53;8.80;99.70
3648;DHT22;1840;48.892;15.312;2023-04-01T15:21:43;8.80;99.30
3648;DHT22;1840;48.892;15.312;2023-04-01T15:24:19;8.90;99.50
3648;DHT22;1840;48.892;15.312;2023-04-01T15:27:11;9.10;99.10
3648;DHT22;1840;48.892;15.312;2023-04-01T15:29:55;9.20;98.30
3648;DHT22;1840;48.892;15.312;2023-04-01T15:32:37;9.30;98.70
3648;DHT22;1840;48.892;15.312;2023-04-01T15:35:21;9.30;97.90
3648;DHT22;1840;48.892;15.312;2023-04-01T15:37:55;9.10;97.80
3648;DHT22;1840;48.892;15.312;2023-04-01T15:40:27;8.90;98.20
3648;DHT22;1840;48.892;15.312;2023-04-01T15:43:11;8.90;98.10
3648;DHT22;1840;48.892;15.312;2023-04-01T15:45:47;8.90;98.30
3648;DHT22;1840;48.892;15.312;2023-04-01T15:48:27;9.20;98.00
3648;DHT22;1840;48.892;15.312;2023-04-01T15:57:20;9.00;96.80
3648;DHT22;1840;48.892;15.312;2023-04-01T16:00:23;9.00;96.90
3648;DHT22;1840;48.892;15.312;2023-04-01T16:03:17;8.80;95.80
3648;DHT22;1840;48.892;15.312;2023-04-01T16:06:00;8.70;96.20
3648;DHT22;1840;48.892;15.312;2023-04-01T16:09:01;8.50;96.10
3648;DHT22;1840;48.892;15.312;2023-04-01T16:11:39;8.70;95.50
3648;DHT22;1840;48.892;15.312;2023-04-01T16:14:20;8.70;95.60
3648;DHT22;1840;48.892;15.312;2023-04-01T16:17:05;8.80;95.50
3648;DHT22;1840;48.892;15.312;2023-04-01T16:19:51;8.80;95.60
3648;DHT22;1840;48.892;15.312;2023-04-01T16:22:23;8.40;95.20
3648;DHT22;1840;48.892;15.312;2023-04-01T16:25:07;8.10;95.10
3648;DHT22;1840;48.892;15.312;2023-04-01T16:27:46;7.80;95.30
3648;DHT22;1840;48.892;15.312;2023-04-01T16:30:32;7.50;95.70
3648;DHT22;1840;48.892;15.312;2023-04-01T16:33:04;7.40;95.80
3648;DHT22;1840;48.892;15.312;2023-04-01T16:35:43;7.30;95.70
3648;DHT22;1840;48.892;15.312;2023-04-01T16:38:20;7.30;96.00
3648;DHT22;1840;48.892;15.312;2023-04-01T16:41:00;7.20;96.00
3648;DHT22;1840;48.892;15.312;2023-04-01T16:43:39;7.10;95.80
3648;DHT22;1840;48.892;15.312;2023-04-01T16:46:19;7.00;96.20
3648;DHT22;1840;48.892;15.312;2023-04-01T16:48:59;7.00;96.20
3648;DHT22;1840;48.892;15.312;2023-04-01T16:51:37;7.10;96.20
3648;DHT22;1840;48.892;15.312;2023-04-01T16:54:14;7.10;96.20
3648;DHT22;1840;48.892;15.312;2023-04-01T16:56:47;7.10;96.50
3648;DHT22;1840;48.892;15.312;2023-04-01T16:59:21;7.20;96.00
3648;DHT22;1840;48.892;15.312;2023-04-01T17:01:53;7.10;96.20
3648;DHT22;1840;48.892;15.312;2023-04-01T17:04:33;7.10;96.30
3648;DHT22;1840;48.892;15.312;2023-04-01T17:07:15;7.10;96.10
3648;DHT22;1840;48.892;15.312;2023-04-01T17:10:00;7.00;96.20
3648;DHT22;1840;48.892;15.312;2023-04-01T17:12:36;7.20;95.80
3648;DHT22;1840;48.892;15.312;2023-04-01T17:15:16;7.10;95.80
3648;DHT22;1840;48.892;15.312;2023-04-01T17:17:56;7.10;95.60
3648;DHT22;1840;48.892;15.312;2023-04-01T17:20:39;7.00;95.80
3648;DHT22;1840;48.892;15.312;2023-04-01T17:23:14;6.90;96.10
3648;DHT22;1840;48.892;15.312;2023-04-01T17:26:10;6.70;96.30
3648;DHT22;1840;48.892;15.312;2023-04-01T17:28:47;6.70;96.40
3648;DHT22;1840;48.892;15.312;2023-04-01T17:31:33;6.70;96.50
3648;DHT22;1840;48.892;15.312;2023-04-01T17:34:30;6.50;96.50
3648;DHT22;1840;48.892;15.312;2023-04-01T17:37:13;6.50;96.60
3648;DHT22;1840;48.892;15.312;2023-04-01T17:39:51;6.40;96.90
3648;DHT22;1840;48.892;15.312;2023-04-01T17:42:31;6.50;96.60
3648;DHT22;1840;48.892;15.312;2023-04-01T17:45:08;6.20;96.90
3648;DHT22;1840;48.892;15.312;2023-04-01T17:47:49;6.30;96.90
3648;DHT22;1840;48.892;15.312;2023-04-01T17:50:25;6.30;96.80
3648;DHT22;1840;48.892;15.312;2023-04-01T17:53:07;6.20;96.80
3648;DHT22;1840;48.892;15.312;2023-04-01T17:56:05;6.40;96.80
3648;DHT22;1840;48.892;15.312;2023-04-01T17:58:42;6.40;96.60
3648;DHT22;1840;48.892;15.312;2023-04-01T18:01:21;6.10;97.40
3648;DHT22;1840;48.892;15.312;2023-04-01T18:04:07;6.00;97.60
3648;DHT22;1840;48.892;15.312;2023-04-01T18:06:45;5.90;97.70
3648;DHT22;1840;48.892;15.312;2023-04-01T18:09:28;6.00;97.70
3648;DHT22;1840;48.892;15.312;2023-04-01T18:12:09;6.00;97.70
3648;DHT22;1840;48.892;15.312;2023-04-01T18:17:57;6.10;97.50
3648;DHT22;1840;48.892;15.312;2023-04-01T18:20:43;6.00;97.20
3648;DHT22;1840;48.892;15.312;2023-04-01T18:23:24;6.00;97.30
3648;DHT22;1840;48.892;15.312;2023-04-01T18:26:05;6.00;97.20
3648;DHT22;1840;48.892;15.312;2023-04-01T18:28:36;6.00;97.20
3648;DHT22;1840;48.892;15.312;2023-04-01T18:31:09;5.80;97.50
3648;DHT22;1840;48.892;15.312;2023-04-01T18:33:47;6.00;97.30
3648;DHT22;1840;48.892;15.312;2023-04-01T18:36:21;6.10;97.30
3648;DHT22;1840;48.892;15.312;2023-04-01T18:38:54;6.10;97.40
3648;DHT22;1840;48.892;15.312;2023-04-01T18:41:30;5.90;97.40
3648;DHT22;1840;48.892;15.312;2023-04-01T18:44:16;5.90;97.50
3648;DHT22;1840;48.892;15.312;2023-04-01T18:46:51;5.90;97.50